Sint-Martens-Lennik, Belgium
Current Conditions -  °F | °C
As of 10:20 PM on Sunday 23 Nov 2014 (Local Time) from EBBR Reporting Station
Broken Clouds Broken Clouds  
Wind Chill: 55°   Ceiling: 1100
Heat Index: 55°   Visibility: 6mi
Dew Point: 50°   Wind: 8mph
Humidity: 82%   Direction: 250°WSW
Pressure: 29.97"   Gusts: NA
Location:  50.81°N, 4.17°E
Report Text: EBBR 232120Z 25007KT 9999 SCT009 BKN011 13/10 Q1015 TEMPO 4500 -RADZ BKN007
Loading
Personal Weather Stations






























Interactive Weather Map New forecast layout! Learn more

10-Day Weather Forecast

Advertisements
Track Severe Weather on mobile